.
WxDataArchive / Data Records for 2011-02-26
2011-02-25 February 2011 2011-02-27

Data Records for Saturday, 26 February 2011

Time	Temp	Chill	HIndex	Humid	Dewpt	 Wind 	HiWind	WindDir	Rain 	Barom 
-----	----	-----	------	-----	-----	------	------	-------	-----	----- 
00:00	20.5	20.5	20.5	87	17.3	0	0	---	0.00	30.200 
00:05	20.6	20.6	20.6	87	17.4	0	0	---	0.00	30.200 
00:10	20.8	20.8	20.8	87	17.6	0	0	---	0.00	30.200 
00:15	20.8	20.8	20.8	87	17.6	0	0	---	0.00	30.194 
00:20	21.0	21.0	21.0	87	17.8	0	0	---	0.00	30.194 
00:25	21.1	21.1	21.1	87	17.8	0	0	---	0.00	30.194 
00:30	21.3	21.3	21.3	87	18.0	0	0	---	0.00	30.193 
00:35	21.4	21.4	21.4	87	18.1	0	0	---	0.00	30.193 
00:40	21.6	21.6	21.6	87	18.3	0	0	---	0.00	30.193 
00:45	21.8	21.8	21.8	87	18.5	0	0	---	0.00	30.190 
00:50	21.9	21.9	21.9	87	18.6	0	0	---	0.00	30.190 
00:55	22.2	22.2	22.2	87	18.9	0	0	---	0.00	30.190 
01:00	22.5	22.5	22.5	87	19.2	0	0	---	0.00	30.188 
01:05	22.7	22.7	22.7	87	19.4	0	0	---	0.00	30.188 
01:10	22.9	22.9	22.9	86	19.4	0	0	---	0.00	30.188 
01:15	23.0	23.0	23.0	86	19.4	0	0	---	0.00	30.180 
01:20	23.2	23.2	23.2	86	19.6	0	0	---	0.00	30.180 
01:25	23.2	23.2	23.2	85	19.4	0	0	---	0.00	30.180 
01:30	23.2	23.2	23.2	85	19.4	0	0	---	0.00	30.176 
01:35	23.3	23.3	23.3	85	19.5	0	0	---	0.00	30.176 
01:40	23.3	23.3	23.3	85	19.5	0	0	---	0.00	30.176 
01:45	23.5	23.5	23.5	85	19.7	0	0	---	0.00	30.173 
01:50	23.5	23.5	23.5	85	19.7	0	0	---	0.00	30.173 
01:55	23.6	23.6	23.6	85	19.8	0	0	---	0.00	30.173 
02:00	23.8	23.8	23.8	84	19.7	0	0	---	0.00	30.176 
02:05	23.9	23.9	23.9	84	19.8	0	0	---	0.00	30.176 
02:10	23.9	23.9	23.9	84	19.8	0	0	---	0.00	30.176 
02:15	24.1	24.1	24.1	84	20.0	0	0	---	0.00	30.169 
02:20	24.2	24.2	24.2	83	19.8	0	0	---	0.00	30.169 
02:25	24.4	24.4	24.4	83	20.0	0	1	270	0.00	30.169 
02:30	24.4	24.4	24.4	82	19.7	0	0	---	0.00	30.167 
02:35	24.5	24.5	24.5	82	19.8	0	1	270	0.00	30.167 
02:40	24.5	24.5	24.5	82	19.8	0	1	270	0.00	30.167 
02:45	24.7	24.7	24.7	81	19.7	0	1	270	0.00	30.158 
02:50	24.7	24.7	24.7	81	19.7	0	1	270	0.00	30.158 
02:55	24.7	24.7	24.7	81	19.7	0	1	270	0.00	30.158 
03:00	24.7	24.7	24.7	81	19.7	0	1	270	0.00	30.154 
03:05	24.8	24.8	24.8	80	19.5	0	1	270	0.00	30.154 
03:10	24.8	24.8	24.8	80	19.5	0	0	---	0.00	30.154 
03:15	24.8	24.8	24.8	80	19.5	0	1	270	0.00	30.155 
03:20	25.0	25.0	25.0	80	19.7	0	2	270	0.00	30.155 
03:25	25.0	25.0	25.0	80	19.7	0	2	270	0.00	30.155 
03:30	25.1	25.1	25.1	80	19.8	0	1	270	0.00	30.156 
03:35	25.1	25.1	25.1	80	19.8	0	1	270	0.00	30.156 
03:40	25.3	25.3	25.3	79	19.7	0	2	270	0.00	30.156 
03:45	25.3	25.3	25.3	79	19.7	0	1	270	0.00	30.158 
03:50	25.4	25.4	25.4	79	19.8	0	1	270	0.00	30.158 
03:55	25.4	25.4	25.4	79	19.8	0	0	---	0.00	30.158 
04:00	25.6	25.6	25.6	79	20.0	0	0	---	0.00	30.160 
04:05	25.6	25.6	25.6	79	20.0	0	0	---	0.00	30.160 
04:10	25.6	25.6	25.6	79	20.0	0	0	---	0.00	30.160 
04:15	25.7	25.7	25.7	79	20.1	0	0	---	0.00	30.157 
04:20	25.7	25.7	25.7	79	20.1	0	0	---	0.00	30.157 
04:25	25.8	25.8	25.8	79	20.2	0	0	---	0.00	30.157 
04:30	25.8	25.8	25.8	79	20.2	0	1	270	0.00	30.159 
04:35	25.8	25.8	25.8	79	20.2	0	0	---	0.00	30.159 
04:40	26.0	26.0	26.0	79	20.4	0	0	---	0.00	30.159 
04:45	26.0	26.0	26.0	79	20.4	0	0	---	0.00	30.155 
04:50	26.0	26.0	26.0	79	20.4	0	0	---	0.00	30.155 
04:55	26.0	26.0	26.0	80	20.7	0	0	---	0.00	30.155 
05:00	26.0	26.0	26.0	80	20.7	0	0	---	0.00	30.151 
05:05	26.1	26.1	26.1	80	20.8	0	0	---	0.00	30.151 
05:10	26.1	26.1	26.1	80	20.8	0	0	---	0.00	30.151 
05:15	26.1	26.1	26.1	80	20.8	0	0	---	0.00	30.150 
05:20	26.1	26.1	26.1	80	20.8	0	0	---	0.00	30.150 
05:25	26.1	26.1	26.1	81	21.1	0	0	---	0.00	30.150 
05:30	26.1	26.1	26.1	81	21.1	0	0	---	0.00	30.142 
05:35	26.1	26.1	26.1	81	21.1	0	1	270	0.00	30.142 
05:40	26.3	26.3	26.3	80	21.0	0	1	270	0.00	30.142 
05:45	26.3	26.3	26.3	81	21.3	0	1	270	0.00	30.140 
05:50	26.3	26.3	26.3	81	21.3	0	0	---	0.00	30.140 
05:55	26.3	26.3	26.3	81	21.3	0	0	---	0.00	30.140 
06:00	26.3	26.3	26.3	81	21.3	0	0	---	0.00	30.138 
06:05	26.3	26.3	26.3	81	21.3	0	0	---	0.00	30.138 
06:10	26.3	26.3	26.3	81	21.3	0	0	---	0.00	30.138 
06:15	26.3	26.3	26.3	82	21.6	0	1	270	0.00	30.141 
06:20	26.3	26.3	26.3	82	21.6	0	0	---	0.00	30.141 
06:25	26.3	26.3	26.3	82	21.6	0	0	---	0.00	30.141 
06:30	26.1	26.1	26.1	83	21.7	0	0	---	0.00	30.134 
06:35	26.1	26.1	26.1	83	21.7	0	0	---	0.00	30.134 
06:40	26.0	26.0	26.0	84	21.8	0	0	---	0.00	30.134 
06:45	26.0	26.0	26.0	84	21.8	0	0	---	0.00	30.126 
06:50	25.7	25.7	25.7	84	21.5	0	0	---	0.00	30.126 
06:55	25.6	25.6	25.6	84	21.5	0	0	---	0.00	30.126 
07:00	25.4	25.4	25.4	84	21.3	0	0	---	0.00	30.129 
07:05	25.1	25.1	25.1	84	21.0	0	0	---	0.00	30.129 
07:10	25.0	25.0	25.0	84	20.9	0	0	---	0.00	30.129 
07:15	24.7	24.7	24.7	84	20.6	0	0	---	0.00	30.133 
07:20	24.4	24.4	24.4	84	20.3	0	0	---	0.00	30.133 
07:25	24.2	24.2	24.2	84	20.1	0	1	270	0.00	30.133 
07:30	24.1	24.1	24.1	85	20.3	0	0	---	0.00	30.135 
07:35	23.9	23.9	23.9	85	20.1	0	0	---	0.00	30.135 
07:40	23.9	23.9	23.9	86	20.3	0	0	---	0.00	30.135 
07:45	23.8	23.8	23.8	86	20.2	0	0	---	0.00	30.139 
07:50	23.6	23.6	23.6	86	20.0	0	0	---	0.00	30.139 
07:55	23.8	23.8	23.8	87	20.5	0	1	270	0.00	30.139 
08:00	24.1	24.1	24.1	88	21.1	0	1	270	0.00	30.129 
08:05	24.4	24.4	24.4	88	21.4	0	0	---	0.00	30.129 
08:10	24.4	24.4	24.4	88	21.4	0	1	270	0.00	30.129 
08:15	24.5	24.5	24.5	88	21.5	0	0	---	0.00	30.127 
08:20	24.7	24.7	24.7	88	21.7	0	0	---	0.00	30.127 
08:25	24.8	24.8	24.8	88	21.8	0	0	---	0.00	30.127 
08:30	25.1	25.1	25.1	88	22.1	0	1	270	0.00	30.135 
08:35	25.4	25.4	25.4	88	22.4	0	0	---	0.00	30.135 
08:40	25.7	25.7	25.7	88	22.6	0	1	270	0.00	30.135 
08:45	26.0	26.0	26.0	88	22.9	0	0	---	0.00	30.135 
08:50	26.4	26.4	26.4	88	23.3	0	0	---	0.00	30.135 
08:55	27.0	27.0	27.0	88	23.9	0	1	270	0.00	30.135 
09:00	27.5	27.5	27.5	88	24.4	0	1	270	0.00	30.133 
09:05	27.9	27.9	27.9	87	24.5	0	0	---	0.00	30.133 
09:10	28.5	28.5	28.5	87	25.1	0	2	270	0.00	30.133 
09:15	28.8	28.8	28.8	86	25.2	0	1	270	0.00	30.134 
09:20	29.1	29.1	29.1	85	25.2	0	1	270	0.00	30.134 
09:25	29.4	29.4	29.4	84	25.2	0	1	270	0.00	30.134 
09:30	29.8	29.8	29.8	84	25.6	0	1	270	0.00	30.129 
09:35	30.4	30.4	30.4	84	26.2	0	2	270	0.00	30.129 
09:40	30.7	30.7	30.7	82	25.9	0	2	270	0.00	30.129 
09:45	31.2	31.2	31.2	82	26.4	0	1	270	0.00	30.127 
09:50	31.6	31.6	31.6	81	26.5	0	1	270	0.00	30.127 
09:55	32.2	32.2	32.2	81	27.0	0	3	270	0.00	30.127 
10:00	32.5	32.5	32.5	79	26.7	0	1	270	0.00	30.134 
10:05	32.5	32.5	32.5	78	26.4	1	3	270	0.00	30.134 
10:10	32.2	32.2	32.2	77	25.8	2	5	270	0.00	30.134 
10:15	32.2	32.2	32.2	78	26.1	2	5	248	0.00	30.144 
10:20	32.5	32.5	32.5	78	26.4	1	4	225	0.01	30.144 
10:25	32.5	32.5	32.5	77	26.1	1	3	248	0.00	30.144 
10:30	32.8	32.8	32.8	77	26.4	1	3	248	0.00	30.136 
10:35	33.2	33.2	33.2	76	26.5	1	4	248	0.00	30.136 
10:40	33.5	33.5	33.5	75	26.4	0	3	248	0.00	30.136 
10:45	33.5	33.5	33.5	73	25.8	1	3	248	0.00	30.138 
10:50	33.4	33.4	33.4	72	25.4	2	6	270	0.00	30.138 
10:55	33.2	33.2	33.2	72	25.2	2	5	248	0.00	30.138 
11:00	33.2	33.2	33.2	72	25.2	2	5	248	0.00	30.129 
11:05	33.2	33.2	33.2	72	25.2	1	4	248	0.00	30.129 
11:10	33.4	33.4	33.4	71	25.0	1	3	248	0.01	30.129 
11:15	33.7	33.7	33.7	71	25.3	1	3	248	0.00	30.128 
11:20	34.0	34.0	34.0	70	25.3	1	3	248	0.00	30.128 
11:25	34.1	34.1	34.1	70	25.4	1	3	248	0.00	30.128 
11:30	34.3	34.3	34.3	70	25.5	0	3	248	0.00	30.111 
11:35	34.6	34.6	34.6	69	25.5	0	2	248	0.00	30.111 
11:40	34.6	34.6	34.6	68	25.1	1	3	248	0.00	30.111 
11:45	34.9	34.9	34.9	65	24.3	0	2	248	0.00	30.095 
11:50	35.0	35.0	35.0	67	25.2	1	2	248	0.00	30.095 
11:55	35.0	35.0	35.0	67	25.2	1	3	248	0.01	30.095 
12:00	34.9	34.9	34.9	67	25.1	1	2	248	0.00	30.083 
12:05	35.0	35.0	35.0	68	25.5	1	3	248	0.00	30.083 
12:10	34.9	34.9	34.9	68	25.4	0	2	248	0.00	30.083 
12:15	35.0	35.0	35.0	68	25.5	1	3	248	0.00	30.069 
12:20	35.3	35.3	35.3	66	25.1	0	1	248	0.00	30.069 
12:25	35.6	35.6	35.6	65	25.0	1	3	248	0.00	30.069 
12:30	35.6	35.6	35.6	65	25.0	1	4	90	0.00	30.059 
12:35	35.6	35.6	35.6	66	25.4	1	5	90	0.01	30.059 
12:40	35.2	35.2	35.2	67	25.4	1	2	90	0.00	30.059 
12:45	34.9	34.9	34.9	66	24.7	1	3	90	0.00	30.047 
12:50	34.7	34.7	34.7	67	24.9	1	3	270	0.00	30.047 
12:55	34.7	34.7	34.7	67	24.9	0	4	248	0.00	30.047 
13:00	34.9	34.9	34.9	67	25.1	1	4	248	0.00	30.044 
13:05	34.9	34.9	34.9	67	25.1	1	5	90	0.00	30.044 
13:10	34.9	34.9	34.9	66	24.7	1	3	90	0.00	30.044 
13:15	35.0	35.0	35.0	67	25.2	1	3	248	0.00	30.029 
13:20	34.9	34.9	34.9	67	25.1	1	4	248	0.00	30.029 
13:25	34.7	34.7	34.7	68	25.2	1	3	90	0.00	30.029 
13:30	34.6	34.6	34.6	70	25.8	1	3	270	0.00	30.020 
13:35	34.3	34.3	34.3	72	26.2	1	4	90	0.00	30.020 
13:40	34.1	34.1	34.1	72	26.0	1	3	68	0.00	30.020 
13:45	34.1	34.1	34.1	73	26.4	0	2	292	0.01	30.015 
13:50	34.3	34.3	34.3	73	26.6	0	3	292	0.00	30.015 
13:55	34.1	34.1	34.1	74	26.7	1	4	90	0.00	30.015 
14:00	33.8	33.8	33.8	76	27.1	1	3	90	0.00	30.002 
14:05	33.5	33.5	33.5	77	27.1	0	2	90	0.00	30.002 
14:10	33.5	33.5	33.5	79	27.7	0	1	90	0.00	30.002 
14:15	33.4	33.4	33.4	80	27.9	0	2	90	0.00	29.999 
14:20	33.4	33.4	33.4	81	28.2	1	3	90	0.00	29.999 
14:25	33.1	33.1	33.1	82	28.2	0	2	90	0.00	29.999 
14:30	32.9	32.9	32.9	83	28.3	1	4	90	0.00	29.991 
14:35	32.8	32.8	32.8	84	28.5	0	2	90	0.01	29.991 
14:40	32.9	32.9	32.9	84	28.6	0	2	90	0.00	29.991 
14:45	33.1	33.1	33.1	84	28.8	0	2	90	0.00	29.983 
14:50	33.1	33.1	33.1	84	28.8	0	2	90	0.00	29.983 
14:55	33.1	33.1	33.1	84	28.8	1	4	90	0.00	29.983 
15:00	32.9	32.9	32.9	84	28.6	0	2	90	0.00	29.981 
15:05	32.8	32.8	32.8	84	28.5	0	2	90	0.00	29.981 
15:10	32.7	32.7	32.7	84	28.4	1	3	90	0.00	29.981 
15:15	32.7	32.7	32.7	84	28.4	0	2	90	0.00	29.971 
15:20	32.7	32.7	32.7	84	28.4	0	3	90	0.00	29.971 
15:25	32.7	32.7	32.7	84	28.4	1	2	90	0.00	29.971 
15:30	32.7	32.7	32.7	84	28.4	0	2	90	0.00	29.973 
15:35	32.7	32.7	32.7	83	28.1	1	3	248	0.00	29.973 
15:40	32.7	32.7	32.7	83	28.1	0	3	248	0.00	29.973 
15:45	32.7	32.7	32.7	83	28.1	0	2	248	0.00	29.965 
15:50	32.5	32.5	32.5	83	27.9	0	2	248	0.00	29.965 
15:55	32.5	32.5	32.5	83	27.9	0	2	248	0.00	29.965 
16:00	32.7	32.7	32.7	83	28.1	0	2	248	0.00	29.962 
16:05	32.5	32.5	32.5	83	27.9	0	2	248	0.00	29.962 
16:10	32.5	32.5	32.5	83	27.9	0	1	248	0.00	29.962 
16:15	32.5	32.5	32.5	83	27.9	0	2	248	0.00	29.956 
16:20	32.5	32.5	32.5	83	27.9	0	3	248	0.00	29.956 
16:25	32.5	32.5	32.5	83	27.9	0	3	248	0.00	29.956 
16:30	32.5	32.5	32.5	83	27.9	0	2	248	0.00	29.949 
16:35	32.4	32.4	32.4	83	27.8	0	1	248	0.01	29.949 
16:40	32.2	32.2	32.2	83	27.6	0	1	248	0.00	29.949 
16:45	32.2	32.2	32.2	83	27.6	0	3	248	0.00	29.951 
16:50	32.2	32.2	32.2	83	27.6	0	2	248	0.00	29.951 
16:55	32.1	32.1	32.1	84	27.8	0	4	135	0.00	29.951 
17:00	32.1	32.1	32.1	84	27.8	0	2	135	0.00	29.950 
17:05	31.9	31.9	31.9	84	27.6	0	1	135	0.00	29.950 
17:10	31.9	31.9	31.9	84	27.6	0	3	248	0.00	29.950 
17:15	31.9	31.9	31.9	84	27.6	0	1	248	0.00	29.951 
17:20	31.9	31.9	31.9	85	27.9	0	3	248	0.00	29.951 
17:25	31.8	31.8	31.8	85	27.8	0	2	248	0.00	29.951 
17:30	31.8	31.8	31.8	86	28.1	0	1	248	0.00	29.948 
17:35	31.8	31.8	31.8	86	28.1	0	0	---	0.00	29.948 
17:40	31.8	31.8	31.8	86	28.1	0	1	248	0.00	29.948 
17:45	31.6	31.6	31.6	87	28.2	0	0	---	0.00	29.945 
17:50	31.6	31.6	31.6	87	28.2	0	1	248	0.00	29.945 
17:55	31.5	31.5	31.5	87	28.1	0	0	---	0.00	29.945 
18:00	31.5	31.5	31.5	88	28.4	0	1	248	0.00	29.942 
18:05	31.5	31.5	31.5	88	28.4	0	0	---	0.00	29.942 
18:10	31.3	31.3	31.3	88	28.2	0	0	---	0.00	29.942 
18:15	31.3	31.3	31.3	88	28.2	0	0	---	0.00	29.933 
18:20	31.3	31.3	31.3	88	28.2	0	0	---	0.00	29.933 
18:25	31.3	31.3	31.3	88	28.2	0	1	248	0.00	29.933 
18:30	31.2	31.2	31.2	88	28.1	0	0	---	0.00	29.925 
18:35	31.2	31.2	31.2	88	28.1	0	0	---	0.00	29.925 
18:40	31.2	31.2	31.2	89	28.3	0	1	248	0.00	29.925 
18:45	31.0	31.0	31.0	89	28.1	0	0	---	0.00	29.921 
18:50	31.0	31.0	31.0	89	28.1	0	0	---	0.00	29.921 
18:55	31.0	31.0	31.0	89	28.1	0	1	248	0.00	29.921 
19:00	31.0	31.0	31.0	89	28.1	0	1	248	0.00	29.925 
19:05	31.0	31.0	31.0	89	28.1	0	1	248	0.00	29.925 
19:10	31.0	31.0	31.0	89	28.1	0	1	248	0.00	29.925 
19:15	31.0	31.0	31.0	89	28.1	0	1	248	0.00	29.916 
19:20	31.0	31.0	31.0	89	28.1	0	1	248	0.00	29.916 
19:25	31.0	31.0	31.0	89	28.1	0	0	---	0.00	29.916 
19:30	31.0	31.0	31.0	89	28.1	0	2	248	0.00	29.909 
19:35	31.0	31.0	31.0	89	28.1	0	1	248	0.00	29.909 
19:40	31.0	31.0	31.0	90	28.4	0	1	248	0.00	29.909 
19:45	31.0	31.0	31.0	90	28.4	0	0	---	0.00	29.907 
19:50	30.9	30.9	30.9	90	28.3	0	1	248	0.00	29.907 
19:55	30.9	30.9	30.9	90	28.3	0	1	248	0.00	29.907 
20:00	30.9	30.9	30.9	90	28.3	0	0	---	0.00	29.912 
20:05	30.9	30.9	30.9	90	28.3	0	0	---	0.00	29.912 
20:10	30.9	30.9	30.9	90	28.3	0	1	248	0.00	29.912 
20:15	30.9	30.9	30.9	90	28.3	0	0	---	0.00	29.904 
20:20	30.9	30.9	30.9	90	28.3	0	0	---	0.00	29.904 
20:25	30.9	30.9	30.9	90	28.3	0	1	248	0.00	29.904 
20:30	30.9	30.9	30.9	90	28.3	0	1	248	0.00	29.903 
20:35	30.9	30.9	30.9	90	28.3	0	0	---	0.00	29.903 
20:40	30.9	30.9	30.9	90	28.3	0	0	---	0.00	29.903 
20:45	30.9	30.9	30.9	90	28.3	0	1	248	0.00	29.905 
20:50	31.0	31.0	31.0	90	28.4	0	1	248	0.00	29.905 
20:55	31.0	31.0	31.0	90	28.4	0	1	248	0.00	29.905 
21:00	31.2	31.2	31.2	90	28.6	0	1	248	0.00	29.913 
21:05	31.2	31.2	31.2	90	28.6	0	0	---	0.00	29.913 
21:10	31.2	31.2	31.2	90	28.6	0	0	---	0.00	29.913 
21:15	31.2	31.2	31.2	90	28.6	0	1	248	0.00	29.908 
21:20	31.3	31.3	31.3	90	28.7	0	1	248	0.00	29.908 
21:25	31.3	31.3	31.3	90	28.7	0	1	248	0.00	29.908 
21:30	31.3	31.3	31.3	90	28.7	0	0	---	0.00	29.906 
21:35	31.3	31.3	31.3	90	28.7	0	1	248	0.00	29.906 
21:40	31.5	31.5	31.5	90	28.9	0	0	---	0.00	29.906 
21:45	31.5	31.5	31.5	90	28.9	0	1	248	0.00	29.904 
21:50	31.5	31.5	31.5	90	28.9	0	2	248	0.00	29.904 
21:55	31.5	31.5	31.5	90	28.9	0	1	248	0.00	29.904 
22:00	31.5	31.5	31.5	90	28.9	0	1	248	0.00	29.907 
22:05	31.6	31.6	31.6	90	29.0	0	1	248	0.00	29.907 
22:10	31.6	31.6	31.6	91	29.3	0	2	248	0.00	29.907 
22:15	31.6	31.6	31.6	91	29.3	0	1	248	0.00	29.901 
22:20	31.6	31.6	31.6	91	29.3	0	2	248	0.00	29.901 
22:25	31.6	31.6	31.6	91	29.3	0	2	248	0.00	29.901 
22:30	31.8	31.8	31.8	91	29.5	0	2	248	0.00	29.898 
22:35	31.8	31.8	31.8	91	29.5	0	4	248	0.00	29.898 
22:40	31.8	31.8	31.8	91	29.5	0	2	248	0.00	29.898 
22:45	31.8	31.8	31.8	91	29.5	0	2	248	0.00	29.896 
22:50	31.9	31.9	31.9	91	29.6	0	2	248	0.00	29.896 
22:55	31.9	31.9	31.9	91	29.6	0	2	248	0.00	29.896 
23:00	31.9	31.9	31.9	91	29.6	0	2	248	0.00	29.896 
23:05	31.9	31.9	31.9	91	29.6	0	2	248	0.00	29.896 
23:10	31.9	31.9	31.9	90	29.3	0	1	248	0.00	29.896 
23:15	31.9	31.9	31.9	90	29.3	0	1	248	0.00	29.894 
23:20	32.1	32.1	32.1	90	29.5	0	1	248	0.00	29.894 
23:25	32.1	32.1	32.1	90	29.5	0	1	248	0.00	29.894 
23:30	32.1	32.1	32.1	90	29.5	0	2	248	0.00	29.888 
23:35	32.2	32.2	32.2	90	29.6	0	2	248	0.00	29.888 
23:40	32.2	32.2	32.2	90	29.6	0	0	---	0.00	29.888 
23:45	32.2	32.2	32.2	90	29.6	0	3	248	0.00	29.885 
23:50	32.2	32.2	32.2	90	29.6	0	3	248	0.00	29.885 
23:55	32.4	32.4	32.4	90	29.8	0	3	248	0.00	29.885 

CoCoRaHS
IN-AL-39
A2 Web Hosting
Creative Commons License
GoDaddy
search engine by freefind advanced

loaded 2018-11-15 02:57:18 • last modified 2010-11-18 10:43:29
Privacy PolicyDisclaimer
• wx.awcolley.com is powered by PmWiki v.2002016 •
• all content (unless otherwise noted) © 2018 A W Colley